sensor_id;sensor_type;location;lat;lon;timestamp;P1;durP1;ratioP1;P2;durP2;ratioP2
66970;SDS011;53901;51.466;-2.588;2023-04-06T00:01:24;9.32;;;6.85;;
66970;SDS011;53901;51.466;-2.588;2023-04-06T00:03:49;11.55;;;7.97;;
66970;SDS011;53901;51.466;-2.588;2023-04-06T00:06:14;13.60;;;8.73;;
66970;SDS011;53901;51.466;-2.588;2023-04-06T00:08:40;13.02;;;8.07;;
66970;SDS011;53901;51.466;-2.588;2023-04-06T00:11:06;9.57;;;6.97;;
66970;SDS011;53901;51.466;-2.588;2023-04-06T00:13:31;11.25;;;7.40;;
66970;SDS011;53901;51.466;-2.588;2023-04-06T00:15:57;10.45;;;7.20;;
66970;SDS011;53901;51.466;-2.588;2023-04-06T00:18:22;10.52;;;6.80;;
66970;SDS011;53901;51.466;-2.588;2023-04-06T00:20:47;11.40;;;6.82;;
66970;SDS011;53901;51.466;-2.588;2023-04-06T00:23:13;12.27;;;7.55;;
66970;SDS011;53901;51.466;-2.588;2023-04-06T00:25:38;12.30;;;8.45;;
66970;SDS011;53901;51.466;-2.588;2023-04-06T00:28:04;14.55;;;8.90;;
66970;SDS011;53901;51.466;-2.588;2023-04-06T00:30:29;13.13;;;8.13;;
66970;SDS011;53901;51.466;-2.588;2023-04-06T00:32:55;14.93;;;8.95;;
66970;SDS011;53901;51.466;-2.588;2023-04-06T00:35:20;11.63;;;7.63;;
66970;SDS011;53901;51.466;-2.588;2023-04-06T00:37:46;11.43;;;7.05;;
66970;SDS011;53901;51.466;-2.588;2023-04-06T00:40:13;11.90;;;6.53;;
66970;SDS011;53901;51.466;-2.588;2023-04-06T00:42:38;9.05;;;6.60;;
66970;SDS011;53901;51.466;-2.588;2023-04-06T00:45:04;11.68;;;7.10;;
66970;SDS011;53901;51.466;-2.588;2023-04-06T00:47:30;9.73;;;6.68;;
66970;SDS011;53901;51.466;-2.588;2023-04-06T00:49:56;9.05;;;6.13;;
66970;SDS011;53901;51.466;-2.588;2023-04-06T00:52:21;14.13;;;6.40;;
66970;SDS011;53901;51.466;-2.588;2023-04-06T00:54:47;9.90;;;6.43;;
66970;SDS011;53901;51.466;-2.588;2023-04-06T00:57:12;11.82;;;6.43;;
66970;SDS011;53901;51.466;-2.588;2023-04-06T00:59:38;9.13;;;6.03;;
66970;SDS011;53901;51.466;-2.588;2023-04-06T01:02:04;9.57;;;6.22;;
66970;SDS011;53901;51.466;-2.588;2023-04-06T01:04:30;10.25;;;6.07;;
66970;SDS011;53901;51.466;-2.588;2023-04-06T01:06:55;10.13;;;6.85;;
66970;SDS011;53901;51.466;-2.588;2023-04-06T01:09:20;8.60;;;5.80;;
66970;SDS011;53901;51.466;-2.588;2023-04-06T01:11:46;9.65;;;5.63;;
66970;SDS011;53901;51.466;-2.588;2023-04-06T01:14:11;8.70;;;5.88;;
66970;SDS011;53901;51.466;-2.588;2023-04-06T01:16:37;8.63;;;5.93;;
66970;SDS011;53901;51.466;-2.588;2023-04-06T01:19:12;8.70;;;5.47;;
66970;SDS011;53901;51.466;-2.588;2023-04-06T01:21:38;7.60;;;5.47;;
66970;SDS011;53901;51.466;-2.588;2023-04-06T01:24:03;8.68;;;5.43;;
66970;SDS011;53901;51.466;-2.588;2023-04-06T01:26:29;6.82;;;4.85;;
66970;SDS011;53901;51.466;-2.588;2023-04-06T01:28:55;7.10;;;5.15;;
66970;SDS011;53901;51.466;-2.588;2023-04-06T01:31:21;7.22;;;4.50;;
66970;SDS011;53901;51.466;-2.588;2023-04-06T01:33:47;6.20;;;4.80;;
66970;SDS011;53901;51.466;-2.588;2023-04-06T01:36:13;5.82;;;4.38;;
66970;SDS011;53901;51.466;-2.588;2023-04-06T01:38:38;5.50;;;3.97;;
66970;SDS011;53901;51.466;-2.588;2023-04-06T01:41:04;4.80;;;3.58;;
66970;SDS011;53901;51.466;-2.588;2023-04-06T01:43:30;5.45;;;3.95;;
66970;SDS011;53901;51.466;-2.588;2023-04-06T01:45:55;5.07;;;3.53;;
66970;SDS011;53901;51.466;-2.588;2023-04-06T01:48:20;5.45;;;3.42;;
66970;SDS011;53901;51.466;-2.588;2023-04-06T01:50:46;6.32;;;3.80;;
66970;SDS011;53901;51.466;-2.588;2023-04-06T01:53:11;5.20;;;3.50;;
66970;SDS011;53901;51.466;-2.588;2023-04-06T01:55:37;6.70;;;4.28;;
66970;SDS011;53901;51.466;-2.588;2023-04-06T01:58:02;6.45;;;3.90;;
66970;SDS011;53901;51.466;-2.588;2023-04-06T02:00:28;3.40;;;2.75;;
66970;SDS011;53901;51.466;-2.588;2023-04-06T02:02:53;3.92;;;2.97;;
66970;SDS011;53901;51.466;-2.588;2023-04-06T02:05:19;5.43;;;3.50;;
66970;SDS011;53901;51.466;-2.588;2023-04-06T02:07:45;6.00;;;3.78;;
66970;SDS011;53901;51.466;-2.588;2023-04-06T02:10:11;4.75;;;3.45;;
66970;SDS011;53901;51.466;-2.588;2023-04-06T02:12:37;4.30;;;3.05;;
66970;SDS011;53901;51.466;-2.588;2023-04-06T02:15:03;3.40;;;2.72;;
66970;SDS011;53901;51.466;-2.588;2023-04-06T02:17:28;4.28;;;3.20;;
66970;SDS011;53901;51.466;-2.588;2023-04-06T02:19:54;4.63;;;2.63;;
66970;SDS011;53901;51.466;-2.588;2023-04-06T02:22:19;2.80;;;1.70;;
66970;SDS011;53901;51.466;-2.588;2023-04-06T02:24:45;5.80;;;1.80;;
66970;SDS011;53901;51.466;-2.588;2023-04-06T02:27:11;4.25;;;1.98;;
66970;SDS011;53901;51.466;-2.588;2023-04-06T02:29:37;5.60;;;1.50;;
66970;SDS011;53901;51.466;-2.588;2023-04-06T02:32:02;2.20;;;1.00;;
66970;SDS011;53901;51.466;-2.588;2023-04-06T02:34:28;3.42;;;1.15;;
66970;SDS011;53901;51.466;-2.588;2023-04-06T02:36:54;1.77;;;1.00;;
66970;SDS011;53901;51.466;-2.588;2023-04-06T02:39:20;1.85;;;0.80;;
66970;SDS011;53901;51.466;-2.588;2023-04-06T02:41:45;2.15;;;0.98;;
66970;SDS011;53901;51.466;-2.588;2023-04-06T02:44:11;1.98;;;0.88;;
66970;SDS011;53901;51.466;-2.588;2023-04-06T02:46:36;2.40;;;0.98;;
66970;SDS011;53901;51.466;-2.588;2023-04-06T02:49:01;2.95;;;0.90;;
66970;SDS011;53901;51.466;-2.588;2023-04-06T02:51:27;5.25;;;1.17;;
66970;SDS011;53901;51.466;-2.588;2023-04-06T02:53:53;4.00;;;1.38;;
66970;SDS011;53901;51.466;-2.588;2023-04-06T02:56:18;1.80;;;0.90;;
66970;SDS011;53901;51.466;-2.588;2023-04-06T02:58:46;5.05;;;1.20;;
66970;SDS011;53901;51.466;-2.588;2023-04-06T03:01:11;2.55;;;0.75;;
66970;SDS011;53901;51.466;-2.588;2023-04-06T03:03:36;6.05;;;0.80;;
66970;SDS011;53901;51.466;-2.588;2023-04-06T03:06:02;1.63;;;0.73;;
66970;SDS011;53901;51.466;-2.588;2023-04-06T03:08:28;3.50;;;1.02;;
66970;SDS011;53901;51.466;-2.588;2023-04-06T03:10:53;3.38;;;0.90;;
66970;SDS011;53901;51.466;-2.588;2023-04-06T03:13:18;2.92;;;0.90;;
66970;SDS011;53901;51.466;-2.588;2023-04-06T03:15:44;2.13;;;0.93;;
66970;SDS011;53901;51.466;-2.588;2023-04-06T03:18:09;2.10;;;0.90;;
66970;SDS011;53901;51.466;-2.588;2023-04-06T03:20:35;2.05;;;0.70;;
66970;SDS011;53901;51.466;-2.588;2023-04-06T03:23:00;2.97;;;0.80;;
66970;SDS011;53901;51.466;-2.588;2023-04-06T03:25:26;2.10;;;0.68;;
66970;SDS011;53901;51.466;-2.588;2023-04-06T03:27:51;3.25;;;1.00;;
66970;SDS011;53901;51.466;-2.588;2023-04-06T03:30:17;3.38;;;1.23;;
66970;SDS011;53901;51.466;-2.588;2023-04-06T03:32:43;3.38;;;0.90;;
66970;SDS011;53901;51.466;-2.588;2023-04-06T03:35:09;4.03;;;1.30;;
66970;SDS011;53901;51.466;-2.588;2023-04-06T03:37:34;5.90;;;1.00;;
66970;SDS011;53901;51.466;-2.588;2023-04-06T03:40:00;6.63;;;2.08;;
66970;SDS011;53901;51.466;-2.588;2023-04-06T03:42:26;11.40;;;1.75;;
66970;SDS011;53901;51.466;-2.588;2023-04-06T03:44:51;10.75;;;2.47;;
66970;SDS011;53901;51.466;-2.588;2023-04-06T03:47:17;11.75;;;2.20;;
66970;SDS011;53901;51.466;-2.588;2023-04-06T03:49:42;16.55;;;3.55;;
66970;SDS011;53901;51.466;-2.588;2023-04-06T03:52:07;15.85;;;3.08;;
66970;SDS011;53901;51.466;-2.588;2023-04-06T03:54:33;17.42;;;3.47;;
66970;SDS011;53901;51.466;-2.588;2023-04-06T03:56:58;15.32;;;3.25;;
66970;SDS011;53901;51.466;-2.588;2023-04-06T03:59:25;15.43;;;3.08;;
66970;SDS011;53901;51.466;-2.588;2023-04-06T04:01:50;18.92;;;3.60;;
66970;SDS011;53901;51.466;-2.588;2023-04-06T04:04:16;19.67;;;3.80;;
66970;SDS011;53901;51.466;-2.588;2023-04-06T04:06:41;19.95;;;3.67;;
66970;SDS011;53901;51.466;-2.588;2023-04-06T04:09:06;16.23;;;2.75;;
66970;SDS011;53901;51.466;-2.588;2023-04-06T04:11:32;13.65;;;2.85;;
66970;SDS011;53901;51.466;-2.588;2023-04-06T04:13:57;10.43;;;2.70;;
66970;SDS011;53901;51.466;-2.588;2023-04-06T04:16:22;15.15;;;2.85;;
66970;SDS011;53901;51.466;-2.588;2023-04-06T04:18:48;16.90;;;3.35;;
66970;SDS011;53901;51.466;-2.588;2023-04-06T04:21:13;14.40;;;2.83;;
66970;SDS011;53901;51.466;-2.588;2023-04-06T04:23:39;17.83;;;3.50;;
66970;SDS011;53901;51.466;-2.588;2023-04-06T04:26:04;23.20;;;3.05;;
66970;SDS011;53901;51.466;-2.588;2023-04-06T04:28:30;14.13;;;3.50;;
66970;SDS011;53901;51.466;-2.588;2023-04-06T04:30:56;15.63;;;2.63;;
66970;SDS011;53901;51.466;-2.588;2023-04-06T04:33:21;24.42;;;3.20;;
66970;SDS011;53901;51.466;-2.588;2023-04-06T04:35:46;15.13;;;2.70;;
66970;SDS011;53901;51.466;-2.588;2023-04-06T04:38:12;28.20;;;3.22;;
66970;SDS011;53901;51.466;-2.588;2023-04-06T04:40:37;21.65;;;3.08;;
66970;SDS011;53901;51.466;-2.588;2023-04-06T04:43:03;20.58;;;3.05;;
66970;SDS011;53901;51.466;-2.588;2023-04-06T04:45:28;21.42;;;4.10;;
66970;SDS011;53901;51.466;-2.588;2023-04-06T04:47:53;18.40;;;2.90;;
66970;SDS011;53901;51.466;-2.588;2023-04-06T04:50:19;24.15;;;3.97;;
66970;SDS011;53901;51.466;-2.588;2023-04-06T04:52:44;17.73;;;3.10;;
66970;SDS011;53901;51.466;-2.588;2023-04-06T04:55:10;19.90;;;3.35;;
66970;SDS011;53901;51.466;-2.588;2023-04-06T04:57:35;26.38;;;3.35;;
66970;SDS011;53901;51.466;-2.588;2023-04-06T05:00:00;20.50;;;2.78;;
66970;SDS011;53901;51.466;-2.588;2023-04-06T05:02:27;16.48;;;3.08;;
66970;SDS011;53901;51.466;-2.588;2023-04-06T05:04:52;20.35;;;3.00;;
66970;SDS011;53901;51.466;-2.588;2023-04-06T05:07:17;24.77;;;4.57;;
66970;SDS011;53901;51.466;-2.588;2023-04-06T05:09:43;17.75;;;3.70;;
66970;SDS011;53901;51.466;-2.588;2023-04-06T05:12:09;22.98;;;4.03;;
66970;SDS011;53901;51.466;-2.588;2023-04-06T05:14:35;26.83;;;4.47;;
66970;SDS011;53901;51.466;-2.588;2023-04-06T05:17:00;25.08;;;4.20;;
66970;SDS011;53901;51.466;-2.588;2023-04-06T05:19:26;25.63;;;4.63;;
66970;SDS011;53901;51.466;-2.588;2023-04-06T05:21:51;25.27;;;5.00;;
66970;SDS011;53901;51.466;-2.588;2023-04-06T05:24:16;21.35;;;4.32;;
66970;SDS011;53901;51.466;-2.588;2023-04-06T05:26:42;27.27;;;5.03;;
66970;SDS011;53901;51.466;-2.588;2023-04-06T05:29:07;20.50;;;4.50;;
66970;SDS011;53901;51.466;-2.588;2023-04-06T05:31:32;34.88;;;5.68;;
66970;SDS011;53901;51.466;-2.588;2023-04-06T05:33:58;26.42;;;5.10;;
66970;SDS011;53901;51.466;-2.588;2023-04-06T05:36:23;22.58;;;5.97;;
66970;SDS011;53901;51.466;-2.588;2023-04-06T05:38:48;25.17;;;4.78;;
66970;SDS011;53901;51.466;-2.588;2023-04-06T05:41:15;23.25;;;4.78;;
66970;SDS011;53901;51.466;-2.588;2023-04-06T05:43:41;24.42;;;4.82;;
66970;SDS011;53901;51.466;-2.588;2023-04-06T05:46:06;21.17;;;5.07;;
66970;SDS011;53901;51.466;-2.588;2023-04-06T05:48:32;17.25;;;4.63;;
66970;SDS011;53901;51.466;-2.588;2023-04-06T05:50:57;28.63;;;7.03;;
66970;SDS011;53901;51.466;-2.588;2023-04-06T05:53:23;23.42;;;6.10;;
66970;SDS011;53901;51.466;-2.588;2023-04-06T05:55:51;26.00;;;6.20;;
66970;SDS011;53901;51.466;-2.588;2023-04-06T05:58:16;25.02;;;7.18;;
66970;SDS011;53901;51.466;-2.588;2023-04-06T06:00:42;32.28;;;7.43;;
66970;SDS011;53901;51.466;-2.588;2023-04-06T06:03:07;27.33;;;7.75;;
66970;SDS011;53901;51.466;-2.588;2023-04-06T06:05:33;30.27;;;7.70;;
66970;SDS011;53901;51.466;-2.588;2023-04-06T06:07:59;29.88;;;8.55;;
66970;SDS011;53901;51.466;-2.588;2023-04-06T06:10:27;28.05;;;8.80;;
66970;SDS011;53901;51.466;-2.588;2023-04-06T06:12:52;28.70;;;9.25;;
66970;SDS011;53901;51.466;-2.588;2023-04-06T06:15:18;25.63;;;8.10;;
66970;SDS011;53901;51.466;-2.588;2023-04-06T06:17:43;20.40;;;6.80;;
66970;SDS011;53901;51.466;-2.588;2023-04-06T06:20:08;22.45;;;7.20;;
66970;SDS011;53901;51.466;-2.588;2023-04-06T06:22:34;23.58;;;7.47;;
66970;SDS011;53901;51.466;-2.588;2023-04-06T06:25:00;20.95;;;5.97;;
66970;SDS011;53901;51.466;-2.588;2023-04-06T06:27:25;20.25;;;5.88;;
66970;SDS011;53901;51.466;-2.588;2023-04-06T06:29:51;21.98;;;6.30;;
66970;SDS011;53901;51.466;-2.588;2023-04-06T06:32:16;21.33;;;6.20;;
66970;SDS011;53901;51.466;-2.588;2023-04-06T06:34:42;21.27;;;5.88;;
66970;SDS011;53901;51.466;-2.588;2023-04-06T06:37:08;22.73;;;5.95;;
66970;SDS011;53901;51.466;-2.588;2023-04-06T06:39:33;18.65;;;5.68;;
66970;SDS011;53901;51.466;-2.588;2023-04-06T06:41:58;20.67;;;7.03;;
66970;SDS011;53901;51.466;-2.588;2023-04-06T06:44:26;20.85;;;5.97;;
66970;SDS011;53901;51.466;-2.588;2023-04-06T06:46:52;21.90;;;6.80;;
66970;SDS011;53901;51.466;-2.588;2023-04-06T06:49:17;21.60;;;5.80;;
66970;SDS011;53901;51.466;-2.588;2023-04-06T06:51:43;18.30;;;6.47;;
66970;SDS011;53901;51.466;-2.588;2023-04-06T06:54:09;17.80;;;6.15;;
66970;SDS011;53901;51.466;-2.588;2023-04-06T06:56:34;19.75;;;6.40;;
66970;SDS011;53901;51.466;-2.588;2023-04-06T06:59:02;21.38;;;7.00;;
66970;SDS011;53901;51.466;-2.588;2023-04-06T07:01:27;21.40;;;7.53;;
66970;SDS011;53901;51.466;-2.588;2023-04-06T07:03:52;24.88;;;8.02;;
66970;SDS011;53901;51.466;-2.588;2023-04-06T07:06:18;21.10;;;7.22;;
66970;SDS011;53901;51.466;-2.588;2023-04-06T07:08:43;22.13;;;7.78;;
66970;SDS011;53901;51.466;-2.588;2023-04-06T07:11:08;18.20;;;6.82;;
66970;SDS011;53901;51.466;-2.588;2023-04-06T07:13:34;22.90;;;7.00;;
66970;SDS011;53901;51.466;-2.588;2023-04-06T07:15:59;25.42;;;7.20;;
66970;SDS011;53901;51.466;-2.588;2023-04-06T07:18:25;17.90;;;7.22;;
66970;SDS011;53901;51.466;-2.588;2023-04-06T07:20:50;19.48;;;7.53;;
66970;SDS011;53901;51.466;-2.588;2023-04-06T07:23:15;18.58;;;6.78;;
66970;SDS011;53901;51.466;-2.588;2023-04-06T07:25:41;24.52;;;7.38;;
66970;SDS011;53901;51.466;-2.588;2023-04-06T07:28:07;23.27;;;7.88;;
66970;SDS011;53901;51.466;-2.588;2023-04-06T07:30:32;20.65;;;6.78;;
66970;SDS011;53901;51.466;-2.588;2023-04-06T07:32:57;16.02;;;6.10;;
66970;SDS011;53901;51.466;-2.588;2023-04-06T07:35:24;16.95;;;6.28;;
66970;SDS011;53901;51.466;-2.588;2023-04-06T07:37:51;17.15;;;5.78;;
66970;SDS011;53901;51.466;-2.588;2023-04-06T07:40:17;24.02;;;5.38;;
66970;SDS011;53901;51.466;-2.588;2023-04-06T07:42:43;11.88;;;4.97;;
66970;SDS011;53901;51.466;-2.588;2023-04-06T07:45:08;17.38;;;5.20;;
66970;SDS011;53901;51.466;-2.588;2023-04-06T07:47:34;18.13;;;5.78;;
66970;SDS011;53901;51.466;-2.588;2023-04-06T07:49:59;17.45;;;5.13;;
66970;SDS011;53901;51.466;-2.588;2023-04-06T07:52:24;9.60;;;5.00;;
66970;SDS011;53901;51.466;-2.588;2023-04-06T07:54:50;16.13;;;6.90;;
66970;SDS011;53901;51.466;-2.588;2023-04-06T07:57:15;23.40;;;6.65;;
66970;SDS011;53901;51.466;-2.588;2023-04-06T07:59:41;18.50;;;8.10;;
66970;SDS011;53901;51.466;-2.588;2023-04-06T08:02:07;15.20;;;8.13;;
66970;SDS011;53901;51.466;-2.588;2023-04-06T08:04:32;18.65;;;8.30;;
66970;SDS011;53901;51.466;-2.588;2023-04-06T08:06:58;16.38;;;8.07;;
66970;SDS011;53901;51.466;-2.588;2023-04-06T08:09:23;18.23;;;8.10;;
66970;SDS011;53901;51.466;-2.588;2023-04-06T08:11:49;14.43;;;6.13;;
66970;SDS011;53901;51.466;-2.588;2023-04-06T08:14:14;14.82;;;6.32;;
66970;SDS011;53901;51.466;-2.588;2023-04-06T08:16:41;15.80;;;6.15;;
66970;SDS011;53901;51.466;-2.588;2023-04-06T08:19:06;12.68;;;4.90;;
66970;SDS011;53901;51.466;-2.588;2023-04-06T08:21:34;13.98;;;4.65;;
66970;SDS011;53901;51.466;-2.588;2023-04-06T08:24:00;13.27;;;4.22;;
66970;SDS011;53901;51.466;-2.588;2023-04-06T08:26:26;13.20;;;4.55;;
66970;SDS011;53901;51.466;-2.588;2023-04-06T08:28:52;14.02;;;4.25;;
66970;SDS011;53901;51.466;-2.588;2023-04-06T08:31:17;17.75;;;4.47;;
66970;SDS011;53901;51.466;-2.588;2023-04-06T08:33:42;14.02;;;4.90;;
66970;SDS011;53901;51.466;-2.588;2023-04-06T08:36:09;16.95;;;5.32;;
66970;SDS011;53901;51.466;-2.588;2023-04-06T08:38:35;15.13;;;4.78;;
66970;SDS011;53901;51.466;-2.588;2023-04-06T08:41:06;12.93;;;4.78;;
66970;SDS011;53901;51.466;-2.588;2023-04-06T08:43:33;14.20;;;4.80;;
66970;SDS011;53901;51.466;-2.588;2023-04-06T08:46:01;11.25;;;4.45;;
66970;SDS011;53901;51.466;-2.588;2023-04-06T08:48:28;16.42;;;4.55;;
66970;SDS011;53901;51.466;-2.588;2023-04-06T08:50:53;9.68;;;3.60;;
66970;SDS011;53901;51.466;-2.588;2023-04-06T08:53:19;12.07;;;3.92;;
66970;SDS011;53901;51.466;-2.588;2023-04-06T08:55:45;10.52;;;3.13;;
66970;SDS011;53901;51.466;-2.588;2023-04-06T08:58:11;12.73;;;3.42;;
66970;SDS011;53901;51.466;-2.588;2023-04-06T09:00:39;14.18;;;4.00;;
66970;SDS011;53901;51.466;-2.588;2023-04-06T09:03:05;10.80;;;3.35;;
66970;SDS011;53901;51.466;-2.588;2023-04-06T09:05:31;10.05;;;3.38;;
66970;SDS011;53901;51.466;-2.588;2023-04-06T09:07:56;12.43;;;3.10;;
66970;SDS011;53901;51.466;-2.588;2023-04-06T09:10:22;9.50;;;3.25;;
66970;SDS011;53901;51.466;-2.588;2023-04-06T09:12:50;8.23;;;2.50;;
66970;SDS011;53901;51.466;-2.588;2023-04-06T09:15:19;11.18;;;3.15;;
66970;SDS011;53901;51.466;-2.588;2023-04-06T09:17:45;13.90;;;3.63;;
66970;SDS011;53901;51.466;-2.588;2023-04-06T09:20:11;10.57;;;2.53;;
66970;SDS011;53901;51.466;-2.588;2023-04-06T09:22:37;13.18;;;2.55;;
66970;SDS011;53901;51.466;-2.588;2023-04-06T09:25:03;6.63;;;2.00;;
66970;SDS011;53901;51.466;-2.588;2023-04-06T09:27:30;5.82;;;2.10;;
66970;SDS011;53901;51.466;-2.588;2023-04-06T09:30:06;7.15;;;2.28;;
66970;SDS011;53901;51.466;-2.588;2023-04-06T09:32:43;7.72;;;1.88;;
66970;SDS011;53901;51.466;-2.588;2023-04-06T09:35:12;9.85;;;1.85;;
66970;SDS011;53901;51.466;-2.588;2023-04-06T09:37:37;5.13;;;1.55;;
66970;SDS011;53901;51.466;-2.588;2023-04-06T09:40:06;10.85;;;1.88;;
66970;SDS011;53901;51.466;-2.588;2023-04-06T09:42:32;9.27;;;1.42;;
66970;SDS011;53901;51.466;-2.588;2023-04-06T09:44:59;4.72;;;1.30;;
66970;SDS011;53901;51.466;-2.588;2023-04-06T09:47:24;4.40;;;1.42;;
66970;SDS011;53901;51.466;-2.588;2023-04-06T09:49:54;13.48;;;1.60;;
66970;SDS011;53901;51.466;-2.588;2023-04-06T09:52:21;5.63;;;1.73;;
66970;SDS011;53901;51.466;-2.588;2023-04-06T09:54:50;8.25;;;1.52;;
66970;SDS011;53901;51.466;-2.588;2023-04-06T09:57:25;7.82;;;1.77;;
66970;SDS011;53901;51.466;-2.588;2023-04-06T10:08:15;9.75;;;1.92;;
66970;SDS011;53901;51.466;-2.588;2023-04-06T10:10:41;6.55;;;1.60;;
66970;SDS011;53901;51.466;-2.588;2023-04-06T10:13:07;15.25;;;1.98;;
66970;SDS011;53901;51.466;-2.588;2023-04-06T10:15:32;8.48;;;2.00;;
66970;SDS011;53901;51.466;-2.588;2023-04-06T10:17:58;11.45;;;2.60;;
66970;SDS011;53901;51.466;-2.588;2023-04-06T10:21:11;7.68;;;1.80;;
66970;SDS011;53901;51.466;-2.588;2023-04-06T10:26:14;9.02;;;2.58;;
66970;SDS011;53901;51.466;-2.588;2023-04-06T10:28:41;8.13;;;2.50;;
66970;SDS011;53901;51.466;-2.588;2023-04-06T10:31:08;10.95;;;2.72;;
66970;SDS011;53901;51.466;-2.588;2023-04-06T10:33:33;13.88;;;3.40;;
66970;SDS011;53901;51.466;-2.588;2023-04-06T10:36:11;10.75;;;3.22;;
66970;SDS011;53901;51.466;-2.588;2023-04-06T10:38:53;5.50;;;2.35;;
66970;SDS011;53901;51.466;-2.588;2023-04-06T10:41:19;12.70;;;3.42;;
66970;SDS011;53901;51.466;-2.588;2023-04-06T10:43:45;9.75;;;3.17;;
66970;SDS011;53901;51.466;-2.588;2023-04-06T10:46:25;13.60;;;3.50;;
66970;SDS011;53901;51.466;-2.588;2023-04-06T10:48:51;12.02;;;3.20;;
66970;SDS011;53901;51.466;-2.588;2023-04-06T10:51:17;14.05;;;3.75;;
66970;SDS011;53901;51.466;-2.588;2023-04-06T10:53:44;8.20;;;3.08;;
66970;SDS011;53901;51.466;-2.588;2023-04-06T10:56:11;10.18;;;2.80;;
66970;SDS011;53901;51.466;-2.588;2023-04-06T10:58:37;13.43;;;3.40;;
66970;SDS011;53901;51.466;-2.588;2023-04-06T11:01:03;13.85;;;3.17;;
66970;SDS011;53901;51.466;-2.588;2023-04-06T11:03:28;17.10;;;3.30;;
66970;SDS011;53901;51.466;-2.588;2023-04-06T11:05:54;10.27;;;3.03;;
66970;SDS011;53901;51.466;-2.588;2023-04-06T11:08:27;15.10;;;3.85;;
66970;SDS011;53901;51.466;-2.588;2023-04-06T11:11:12;11.65;;;2.80;;
66970;SDS011;53901;51.466;-2.588;2023-04-06T11:16:19;8.18;;;1.48;;
66970;SDS011;53901;51.466;-2.588;2023-04-06T11:18:49;9.25;;;1.55;;
66970;SDS011;53901;51.466;-2.588;2023-04-06T11:21:15;2.85;;;0.90;;
66970;SDS011;53901;51.466;-2.588;2023-04-06T11:23:41;5.00;;;0.95;;
66970;SDS011;53901;51.466;-2.588;2023-04-06T11:26:11;3.30;;;1.13;;
66970;SDS011;53901;51.466;-2.588;2023-04-06T11:28:37;6.93;;;1.30;;
66970;SDS011;53901;51.466;-2.588;2023-04-06T11:31:03;4.28;;;1.00;;
66970;SDS011;53901;51.466;-2.588;2023-04-06T11:33:29;10.85;;;2.13;;
66970;SDS011;53901;51.466;-2.588;2023-04-06T11:36:00;9.73;;;1.83;;
66970;SDS011;53901;51.466;-2.588;2023-04-06T11:38:26;9.57;;;2.35;;
66970;SDS011;53901;51.466;-2.588;2023-04-06T11:40:54;10.20;;;1.80;;
66970;SDS011;53901;51.466;-2.588;2023-04-06T11:43:27;7.22;;;1.95;;
66970;SDS011;53901;51.466;-2.588;2023-04-06T11:45:59;8.52;;;2.13;;
66970;SDS011;53901;51.466;-2.588;2023-04-06T11:48:28;4.82;;;1.58;;
66970;SDS011;53901;51.466;-2.588;2023-04-06T11:50:58;5.70;;;1.58;;
66970;SDS011;53901;51.466;-2.588;2023-04-06T11:53:25;6.07;;;1.48;;
66970;SDS011;53901;51.466;-2.588;2023-04-06T11:55:54;9.55;;;1.60;;
66970;SDS011;53901;51.466;-2.588;2023-04-06T11:58:20;12.57;;;2.40;;
66970;SDS011;53901;51.466;-2.588;2023-04-06T12:00:45;4.15;;;1.15;;
66970;SDS011;53901;51.466;-2.588;2023-04-06T12:03:11;4.78;;;1.48;;
66970;SDS011;53901;51.466;-2.588;2023-04-06T12:05:37;4.50;;;1.30;;
66970;SDS011;53901;51.466;-2.588;2023-04-06T12:08:03;6.70;;;1.63;;
66970;SDS011;53901;51.466;-2.588;2023-04-06T12:10:28;5.45;;;1.15;;
66970;SDS011;53901;51.466;-2.588;2023-04-06T12:12:54;6.55;;;1.30;;
66970;SDS011;53901;51.466;-2.588;2023-04-06T12:15:20;5.25;;;1.30;;
66970;SDS011;53901;51.466;-2.588;2023-04-06T12:17:45;4.68;;;1.40;;
66970;SDS011;53901;51.466;-2.588;2023-04-06T12:20:11;5.00;;;1.30;;
66970;SDS011;53901;51.466;-2.588;2023-04-06T12:22:36;5.88;;;0.90;;
66970;SDS011;53901;51.466;-2.588;2023-04-06T12:25:02;3.58;;;1.10;;
66970;SDS011;53901;51.466;-2.588;2023-04-06T12:27:27;4.30;;;1.17;;
66970;SDS011;53901;51.466;-2.588;2023-04-06T12:29:53;5.22;;;1.40;;
66970;SDS011;53901;51.466;-2.588;2023-04-06T12:32:18;11.40;;;1.63;;
66970;SDS011;53901;51.466;-2.588;2023-04-06T12:34:44;8.23;;;1.55;;
66970;SDS011;53901;51.466;-2.588;2023-04-06T12:37:09;8.43;;;2.00;;
66970;SDS011;53901;51.466;-2.588;2023-04-06T12:39:35;13.43;;;2.45;;
66970;SDS011;53901;51.466;-2.588;2023-04-06T12:42:00;2.88;;;0.77;;
66970;SDS011;53901;51.466;-2.588;2023-04-06T12:44:27;1.75;;;0.60;;
66970;SDS011;53901;51.466;-2.588;2023-04-06T12:46:53;2.97;;;0.80;;
66970;SDS011;53901;51.466;-2.588;2023-04-06T12:49:18;1.35;;;0.65;;
66970;SDS011;53901;51.466;-2.588;2023-04-06T12:51:44;2.40;;;0.70;;
66970;SDS011;53901;51.466;-2.588;2023-04-06T12:54:10;2.20;;;0.60;;
66970;SDS011;53901;51.466;-2.588;2023-04-06T12:56:36;1.65;;;0.70;;
66970;SDS011;53901;51.466;-2.588;2023-04-06T12:59:02;2.13;;;0.80;;
66970;SDS011;53901;51.466;-2.588;2023-04-06T13:01:27;0.95;;;0.60;;
66970;SDS011;53901;51.466;-2.588;2023-04-06T13:03:53;1.35;;;0.50;;
66970;SDS011;53901;51.466;-2.588;2023-04-06T13:06:18;3.17;;;1.40;;
66970;SDS011;53901;51.466;-2.588;2023-04-06T13:08:44;1.90;;;0.77;;
66970;SDS011;53901;51.466;-2.588;2023-04-06T13:11:09;2.67;;;0.68;;
66970;SDS011;53901;51.466;-2.588;2023-04-06T13:13:35;2.25;;;0.70;;
66970;SDS011;53901;51.466;-2.588;2023-04-06T13:16:02;3.00;;;0.70;;
66970;SDS011;53901;51.466;-2.588;2023-04-06T13:18:29;2.70;;;0.60;;
66970;SDS011;53901;51.466;-2.588;2023-04-06T13:20:55;1.90;;;0.70;;
66970;SDS011;53901;51.466;-2.588;2023-04-06T13:23:21;2.10;;;0.52;;
66970;SDS011;53901;51.466;-2.588;2023-04-06T13:25:47;2.58;;;0.60;;
66970;SDS011;53901;51.466;-2.588;2023-04-06T13:28:13;1.38;;;0.50;;
66970;SDS011;53901;51.466;-2.588;2023-04-06T13:30:38;3.17;;;0.80;;
66970;SDS011;53901;51.466;-2.588;2023-04-06T13:33:04;2.38;;;1.23;;
66970;SDS011;53901;51.466;-2.588;2023-04-06T13:35:31;5.95;;;1.10;;
66970;SDS011;53901;51.466;-2.588;2023-04-06T13:37:57;5.88;;;0.85;;
66970;SDS011;53901;51.466;-2.588;2023-04-06T13:40:22;3.97;;;0.82;;
66970;SDS011;53901;51.466;-2.588;2023-04-06T13:42:48;8.98;;;1.60;;
66970;SDS011;53901;51.466;-2.588;2023-04-06T13:45:13;3.72;;;1.00;;
66970;SDS011;53901;51.466;-2.588;2023-04-06T13:47:38;5.95;;;0.90;;
66970;SDS011;53901;51.466;-2.588;2023-04-06T13:50:04;4.28;;;0.98;;
66970;SDS011;53901;51.466;-2.588;2023-04-06T13:52:30;5.28;;;1.27;;
66970;SDS011;53901;51.466;-2.588;2023-04-06T13:54:55;2.58;;;0.90;;
66970;SDS011;53901;51.466;-2.588;2023-04-06T13:57:21;2.72;;;0.90;;
66970;SDS011;53901;51.466;-2.588;2023-04-06T13:59:46;5.10;;;1.20;;
66970;SDS011;53901;51.466;-2.588;2023-04-06T14:02:12;4.15;;;0.80;;
66970;SDS011;53901;51.466;-2.588;2023-04-06T14:04:38;4.28;;;0.90;;
66970;SDS011;53901;51.466;-2.588;2023-04-06T14:07:03;4.38;;;1.00;;
66970;SDS011;53901;51.466;-2.588;2023-04-06T14:09:32;3.35;;;1.00;;
66970;SDS011;53901;51.466;-2.588;2023-04-06T14:11:57;3.47;;;1.20;;
66970;SDS011;53901;51.466;-2.588;2023-04-06T14:14:23;6.43;;;1.35;;
66970;SDS011;53901;51.466;-2.588;2023-04-06T14:16:48;4.35;;;1.15;;
66970;SDS011;53901;51.466;-2.588;2023-04-06T14:19:15;7.28;;;1.73;;
66970;SDS011;53901;51.466;-2.588;2023-04-06T14:21:45;4.90;;;1.30;;
66970;SDS011;53901;51.466;-2.588;2023-04-06T14:24:11;6.07;;;1.63;;
66970;SDS011;53901;51.466;-2.588;2023-04-06T14:26:38;10.27;;;2.03;;
66970;SDS011;53901;51.466;-2.588;2023-04-06T14:29:04;9.13;;;2.03;;
66970;SDS011;53901;51.466;-2.588;2023-04-06T14:31:30;9.85;;;2.13;;
66970;SDS011;53901;51.466;-2.588;2023-04-06T14:33:57;7.88;;;2.00;;
66970;SDS011;53901;51.466;-2.588;2023-04-06T14:36:22;7.97;;;1.83;;